Time;durP1;ratioP1;P1;durP2;ratioP2;P2;SDS_P1;SDS_P2;PMS_P1;PMS_P2;Temp;Humidity;BMP_temperature;BMP_pressure;BME280_temperature;BME280_humidity;BME280_pressure;Samples;Min_cycle;Max_cycle;Signal;HPM_P1;HPM_P2
2022/06/16 00:04:46;;;;;;;3.95;1.10;;;;;;;15.87;100.00;101853.25;10222882;28;20107;-64
2022/06/16 00:09:44;;;;;;;4.47;1.27;;;;;;;15.76;100.00;101850.84;10219170;28;20494;-63
2022/06/16 00:14:41;;;;;;;5.05;1.30;;;;;;;15.66;100.00;101853.88;10216526;28;20259;-63
2022/06/16 00:19:38;;;;;;;4.53;1.55;;;;;;;15.64;100.00;101847.91;10221751;28;20192;-64
2022/06/16 00:24:34;;;;;;;3.90;1.17;;;;;;;15.63;100.00;101846.28;10217425;28;20136;-64
2022/06/16 00:29:33;;;;;;;4.55;1.35;;;;;;;15.58;100.00;101849.22;10223372;28;20056;-64
2022/06/16 00:34:30;;;;;;;4.88;1.13;;;;;;;15.56;100.00;101843.19;10217833;28;20119;-63
2022/06/16 00:39:26;;;;;;;3.03;1.00;;;;;;;15.53;100.00;101841.09;10224543;28;20045;-64
2022/06/16 00:44:25;;;;;;;4.70;1.10;;;;;;;15.43;100.00;101842.22;10226450;28;20041;-63
2022/06/16 00:49:24;;;;;;;3.95;0.80;;;;;;;15.38;100.00;101834.09;10224562;28;20038;-64
2022/06/16 00:54:29;;;;;;;4.50;1.15;;;;;;;15.39;100.00;101818.38;10224606;28;20069;-64
2022/06/16 00:59:25;;;;;;;3.58;1.17;;;;;;;15.38;100.00;101827.78;10216802;28;20033;-64
2022/06/16 01:09:41;;;;;;;3.72;1.38;;;;;;;15.20;100.00;101826.97;10221806;28;20066;-63
2022/06/16 01:14:58;;;;;;;4.07;1.13;;;;;;;15.17;100.00;101827.63;10227319;28;20045;-62
2022/06/16 01:20:02;;;;;;;4.88;1.55;;;;;;;15.08;100.00;101842.16;10225159;28;20080;-63
2022/06/16 01:25:08;;;;;;;7.70;2.15;;;;;;;15.01;100.00;101838.28;10228109;28;20127;-64
2022/06/16 01:30:04;;;;;;;5.03;1.45;;;;;;;14.88;100.00;101838.09;10231704;28;20049;-64
2022/06/16 01:35:33;;;;;;;4.55;1.40;;;;;;;14.90;100.00;101833.06;10230094;28;20053;-63
2022/06/16 01:40:51;;;;;;;3.70;1.10;;;;;;;14.83;100.00;101829.97;10220209;28;20041;-64
2022/06/16 01:46:00;;;;;;;6.40;1.52;;;;;;;14.84;100.00;101820.56;10221071;28;20045;-63
2022/06/16 01:51:09;;;;;;;5.28;1.45;;;;;;;14.82;100.00;101800.81;10227065;28;20075;-62
2022/06/16 01:56:22;;;;;;;4.78;1.52;;;;;;;14.81;100.00;101785.44;10220633;28;20468;-62
2022/06/16 02:01:21;;;;;;;3.47;1.30;;;;;;;14.73;100.00;101794.47;10233423;28;20489;-61
2022/06/16 02:06:23;;;;;;;5.65;1.67;;;;;;;14.72;100.00;101803.88;10234092;28;20049;-63
2022/06/16 02:11:33;;;;;;;6.32;1.60;;;;;;;14.72;100.00;101796.41;10232947;28;20652;-62
2022/06/16 02:16:32;;;;;;;3.47;1.25;;;;;;;14.69;100.00;101796.22;10224916;28;20161;-62
2022/06/16 02:21:38;;;;;;;6.32;1.77;;;;;;;14.65;100.00;101803.53;10228679;28;20144;-64
2022/06/16 02:26:36;;;;;;;5.85;1.63;;;;;;;14.66;100.00;101802.38;10225244;28;20107;-62
2022/06/16 02:31:46;;;;;;;5.60;1.70;;;;;;;14.62;100.00;101806.91;10225379;28;20249;-63
2022/06/16 02:37:01;;;;;;;4.72;1.65;;;;;;;14.62;100.00;101798.63;10219788;28;20072;-62
2022/06/16 02:42:13;;;;;;;4.53;1.48;;;;;;;14.53;100.00;101801.34;10219476;28;20157;-64
2022/06/16 02:48:10;;;;;;;7.00;1.83;;;;;;;14.50;100.00;101800.06;10228589;28;20049;-63
2022/06/16 02:52:51;;;;;;;5.75;1.80;;;;;;;14.35;100.00;101808.72;10217897;28;20099;-63
2022/06/16 02:57:53;;;;;;;4.90;2.08;;;;;;;14.25;100.00;101817.22;10222438;28;20045;-63
2022/06/16 03:02:49;;;;;;;4.03;1.60;;;;;;;14.27;100.00;101817.72;10223249;28;20053;-63
2022/06/16 03:07:46;;;;;;;4.05;1.80;;;;;;;14.21;100.00;101814.31;10220215;28;20477;-62
2022/06/16 03:12:42;;;;;;;5.07;1.55;;;;;;;14.26;100.00;101821.63;10223285;28;20103;-62
2022/06/16 03:17:39;;;;;;;4.57;1.73;;;;;;;14.23;100.00;101828.56;10215131;28;20103;-63
2022/06/16 03:22:35;;;;;;;2.88;1.48;;;;;;;14.17;100.00;101829.00;10228518;28;20107;-64
2022/06/16 03:27:32;;;;;;;5.13;1.90;;;;;;;14.19;100.00;101848.75;10225045;28;20045;-64
2022/06/16 03:32:28;;;;;;;6.80;1.95;;;;;;;14.27;100.00;101836.97;10213697;28;20088;-63
2022/06/16 03:37:25;;;;;;;7.18;1.80;;;;;;;14.27;100.00;101828.72;10227366;28;20076;-64
2022/06/16 03:42:22;;;;;;;3.80;1.70;;;;;;;14.26;100.00;101832.63;10221981;28;20457;-64
2022/06/16 03:47:18;;;;;;;5.60;1.60;;;;;;;14.19;100.00;101844.06;10225629;28;20555;-64
2022/06/16 03:52:15;;;;;;;4.97;2.22;;;;;;;14.31;100.00;101855.28;10215806;28;20092;-63
2022/06/16 03:57:11;;;;;;;4.07;2.03;;;;;;;14.28;100.00;101852.38;10214685;28;20100;-64
2022/06/16 04:02:08;;;;;;;5.82;2.20;;;;;;;14.37;100.00;101861.50;10215462;28;20183;-63
2022/06/16 04:07:05;;;;;;;5.38;1.92;;;;;;;14.42;100.00;101872.34;10222905;28;20045;-64
2022/06/16 04:12:02;;;;;;;4.07;1.75;;;;;;;14.41;100.00;101873.50;10222621;28;20107;-64
2022/06/16 04:16:59;;;;;;;6.45;1.67;;;;;;;14.38;100.00;101867.81;10210321;28;20053;-64
2022/06/16 04:21:55;;;;;;;5.00;2.30;;;;;;;14.45;100.00;101874.47;10211276;28;20084;-64
2022/06/16 04:26:56;;;;;;;5.28;1.85;;;;;;;14.40;100.00;101877.34;10205700;28;20077;-64
2022/06/16 04:31:53;;;;;;;7.15;2.58;;;;;;;14.41;100.00;101884.50;10212821;28;20053;-63
2022/06/16 04:36:50;;;;;;;5.47;2.05;;;;;;;14.41;100.00;101892.75;10210975;28;20567;-68
2022/06/16 04:41:46;;;;;;;4.35;2.05;;;;;;;14.42;100.00;101902.63;10205672;28;20045;-68
2022/06/16 04:46:43;;;;;;;6.57;2.33;;;;;;;14.45;100.00;101896.47;10215885;28;20045;-65
2022/06/16 04:51:39;;;;;;;6.20;2.08;;;;;;;14.49;100.00;101897.47;10220511;28;20069;-65
2022/06/16 04:56:36;;;;;;;6.95;2.65;;;;;;;14.53;100.00;101909.50;10210851;28;20049;-65
2022/06/16 05:01:32;;;;;;;6.53;2.33;;;;;;;14.57;100.00;101906.13;10218158;28;20132;-65
2022/06/16 05:06:29;;;;;;;6.43;2.00;;;;;;;14.70;100.00;101907.97;10202753;28;20054;-66
2022/06/16 05:11:25;;;;;;;12.13;2.92;;;;;;;14.77;100.00;101919.34;10222331;28;20485;-65
2022/06/16 05:16:22;;;;;;;7.40;2.40;;;;;;;14.81;100.00;101920.34;10207372;28;20092;-65
2022/06/16 05:21:18;;;;;;;5.95;2.70;;;;;;;14.84;100.00;101930.72;10196407;28;20049;-65
2022/06/16 05:26:15;;;;;;;9.23;2.53;;;;;;;14.80;100.00;101926.97;10205269;28;20081;-65
2022/06/16 05:31:12;;;;;;;7.13;3.08;;;;;;;14.60;100.00;101944.84;10215456;28;20061;-65
2022/06/16 05:36:11;;;;;;;12.20;3.78;;;;;;;14.70;100.00;101946.53;10205785;28;20531;-65
2022/06/16 05:41:13;;;;;;;6.43;3.38;;;;;;;14.71;100.00;101950.88;10207106;28;20080;-64
2022/06/16 05:46:19;;;;;;;8.77;2.90;;;;;;;14.63;100.00;101962.69;10212308;28;20100;-68
2022/06/16 05:51:16;;;;;;;7.47;3.45;;;;;;;14.60;100.00;101946.81;10212737;28;20042;-74
2022/06/16 05:56:13;;;;;;;8.77;2.70;;;;;;;14.66;100.00;101945.53;10220369;28;20049;-75
2022/06/16 06:01:10;;;;;;;6.28;2.28;;;;;;;14.72;100.00;101947.03;10225669;28;20049;-73
2022/06/16 06:06:08;;;;;;;8.65;3.17;;;;;;;14.84;100.00;101952.75;10214223;28;20057;-71
2022/06/16 06:16:37;;;;;;;9.57;2.60;;;;;;;14.87;100.00;101956.81;10199794;28;20074;-72
2022/06/16 06:26:49;;;;;;;5.95;2.45;;;;;;;15.00;100.00;101961.41;10196270;28;20510;-68
2022/06/16 06:31:45;;;;;;;7.10;2.33;;;;;;;15.08;100.00;101965.31;10204532;28;20046;-70
2022/06/16 06:36:42;;;;;;;9.77;3.05;;;;;;;15.12;100.00;101971.81;10206461;28;20102;-69
2022/06/16 06:41:39;;;;;;;5.45;1.90;;;;;;;15.14;100.00;101969.56;10207662;28;20049;-69
2022/06/16 06:46:35;;;;;;;7.13;1.95;;;;;;;15.20;100.00;101971.06;10205888;28;20049;-69
2022/06/16 06:51:32;;;;;;;9.70;3.05;;;;;;;15.29;100.00;101974.66;10201410;28;20061;-69
2022/06/16 06:56:30;;;;;;;5.60;1.65;;;;;;;15.41;100.00;101976.78;10219590;28;20510;-69
2022/06/16 07:01:27;;;;;;;9.07;1.67;;;;;;;15.57;100.00;101979.88;10227182;28;20088;-69
2022/06/16 07:06:25;;;;;;;7.05;1.60;;;;;;;15.81;100.00;101984.19;10217929;28;20128;-70
2022/06/16 07:11:22;;;;;;;5.47;1.50;;;;;;;15.98;100.00;101984.19;10210887;28;20076;-68
2022/06/16 07:16:19;;;;;;;8.82;1.58;;;;;;;16.15;100.00;101989.72;10216318;28;20417;-69
2022/06/16 07:21:16;;;;;;;3.45;0.95;;;;;;;16.33;100.00;102001.56;10199347;28;20042;-67
2022/06/16 07:26:13;;;;;;;7.70;1.75;;;;;;;16.49;100.00;101999.09;10199933;28;20061;-69
2022/06/16 07:31:10;;;;;;;4.07;0.90;;;;;;;16.67;100.00;101994.38;10200036;28;20046;-68
2022/06/16 07:36:26;;;;;;;5.03;1.42;;;;;;;16.75;100.00;102001.00;10200501;28;20044;-69
2022/06/16 07:41:32;;;;;;;4.30;1.00;;;;;;;16.83;100.00;102005.75;10199857;28;20076;-69
2022/06/16 07:46:28;;;;;;;6.70;1.10;;;;;;;16.83;100.00;102014.03;10213654;28;20486;-70
2022/06/16 07:51:25;;;;;;;3.03;1.00;;;;;;;16.83;100.00;102011.25;10204631;28;20420;-69
2022/06/16 07:56:22;;;;;;;5.78;1.25;;;;;;;16.75;100.00;102012.06;10211577;28;20136;-69
2022/06/16 08:01:18;;;;;;;6.65;1.27;;;;;;;16.73;100.00;102022.59;10221225;28;20064;-68
2022/06/16 08:06:20;;;;;;;3.22;1.05;;;;;;;16.88;100.00;102024.91;10215039;28;20565;-69
2022/06/16 08:16:33;;;;;;;4.57;1.10;;;;;;;17.25;100.00;102036.31;10205320;28;20143;-68
2022/06/16 08:21:30;;;;;;;3.45;1.42;;;;;;;17.27;100.00;102028.50;10211873;28;20138;-69
2022/06/16 08:26:27;;;;;;;4.10;1.08;;;;;;;17.34;100.00;102017.75;10217416;28;20542;-68
2022/06/16 08:31:25;;;;;;;3.22;1.00;;;;;;;17.22;100.00;102025.94;10219662;28;20047;-69
2022/06/16 08:36:22;;;;;;;6.53;1.02;;;;;;;17.27;100.00;102017.44;10222044;28;20049;-69
2022/06/16 08:41:49;;;;;;;3.53;0.60;;;;;;;17.48;100.00;102027.78;10215019;28;20131;-69
2022/06/16 08:47:05;;;;;;;4.22;0.60;;;;;;;17.59;95.69;102012.38;10216403;28;20097;-70
2022/06/16 08:52:01;;;;;;;2.42;0.70;;;;;;;17.67;99.85;102015.13;10233116;28;20045;-69
2022/06/16 08:57:20;;;;;;;2.28;0.50;;;;;;;17.85;87.01;102015.84;10232430;28;20069;-68
2022/06/16 09:02:46;;;;;;;5.00;0.77;;;;;;;17.93;88.64;102016.13;10235202;28;20038;-68
2022/06/16 09:07:55;;;;;;;2.20;0.40;;;;;;;18.02;84.53;102014.09;10232531;28;20065;-67
2022/06/16 09:13:03;;;;;;;5.03;0.70;;;;;;;18.15;82.82;102007.50;10233026;28;20057;-69
2022/06/16 09:18:33;;;;;;;3.78;0.90;;;;;;;18.17;81.13;102010.75;10222690;28;20037;-69
2022/06/16 09:23:41;;;;;;;2.72;0.77;;;;;;;18.25;74.36;102018.13;10223753;28;20065;-69
2022/06/16 09:28:59;;;;;;;1.10;0.43;;;;;;;18.40;79.29;102024.19;10235804;28;20268;-72
2022/06/16 09:34:04;;;;;;;2.08;0.47;;;;;;;18.58;87.71;102022.09;10220052;28;20137;-71
2022/06/16 09:39:12;;;;;;;3.28;0.68;;;;;;;18.77;77.43;102043.75;10217817;28;20103;-71
2022/06/16 09:44:34;;;;;;;2.92;0.70;;;;;;;18.82;77.15;102030.53;10222062;28;20041;-71
2022/06/16 09:49:40;;;;;;;3.83;0.60;;;;;;;18.97;74.79;102031.81;10209083;28;20042;-67
2022/06/16 09:54:58;;;;;;;4.07;0.65;;;;;;;19.12;82.37;102020.06;10200805;28;20092;-67
2022/06/16 10:00:17;;;;;;;3.10;0.90;;;;;;;19.49;80.25;102014.50;10218091;28;20077;-68
2022/06/16 10:05:30;;;;;;;3.03;0.85;;;;;;;19.62;73.93;102014.53;10183285;28;20093;-67
2022/06/16 10:10:43;;;;;;;7.18;0.93;;;;;;;19.73;67.12;102012.94;10202615;28;20049;-68
2022/06/16 10:15:51;;;;;;;4.10;0.90;;;;;;;20.78;72.99;102012.78;10202177;28;20112;-67
2022/06/16 10:20:48;;;;;;;4.70;1.17;;;;;;;21.96;59.22;102026.00;10215870;28;20484;-67
2022/06/16 10:25:54;;;;;;;4.10;1.00;;;;;;;22.83;56.60;102032.13;10209271;28;20550;-68
2022/06/16 10:30:51;;;;;;;4.32;0.60;;;;;;;23.81;54.27;102037.34;10211154;28;20075;-67
2022/06/16 10:35:51;;;;;;;3.72;0.93;;;;;;;24.66;50.86;102045.25;10215892;28;20132;-68
2022/06/16 10:40:48;;;;;;;6.53;0.75;;;;;;;24.59;44.60;102059.16;10213493;28;20554;-68
2022/06/16 10:46:08;;;;;;;2.47;0.70;;;;;;;23.12;47.48;102074.53;10211443;28;20041;-67
2022/06/16 10:51:09;;;;;;;6.25;0.77;;;;;;;24.57;45.85;102073.50;10208746;28;20042;-67
2022/06/16 10:56:21;;;;;;;4.67;1.13;;;;;;;25.89;47.51;102061.94;10212675;28;20070;-68
2022/06/16 11:01:24;;;;;;;2.88;1.00;;;;;;;24.65;43.11;102066.03;10222499;28;20049;-68
2022/06/16 11:06:23;;;;;;;2.55;0.80;;;;;;;24.94;43.18;102070.72;10216757;28;20498;-67
2022/06/16 11:11:42;;;;;;;5.18;1.35;;;;;;;25.40;41.95;102061.97;10222972;28;20092;-67
2022/06/16 11:16:47;;;;;;;3.03;0.70;;;;;;;25.78;40.31;102062.66;10222603;28;20520;-68
2022/06/16 11:21:46;;;;;;;2.63;0.80;;;;;;;26.14;38.37;102054.44;10219540;28;20065;-68
2022/06/16 11:26:43;;;;;;;5.55;1.05;;;;;;;25.72;39.25;102053.00;10211147;28;20042;-67
2022/06/16 11:31:39;;;;;;;4.80;1.17;;;;;;;24.01;42.41;102072.38;10224323;28;20562;-68
2022/06/16 11:36:42;;;;;;;3.40;1.13;;;;;;;23.69;42.99;102064.28;10209620;28;20041;-67
2022/06/16 11:41:43;;;;;;;4.63;0.80;;;;;;;24.66;43.14;102057.22;10206028;28;20118;-67
2022/06/16 11:47:03;;;;;;;4.22;0.70;;;;;;;24.94;41.53;102065.13;10198966;28;20053;-68
2022/06/16 11:52:17;;;;;;;3.65;0.70;;;;;;;25.20;38.93;102066.19;10199579;28;20100;-68
2022/06/16 11:57:26;;;;;;;4.53;1.00;;;;;;;24.86;40.32;102069.03;10208486;28;20081;-68
2022/06/16 12:02:37;;;;;;;5.82;0.93;;;;;;;24.12;42.33;102066.94;10211968;28;20042;-68
2022/06/16 12:07:40;;;;;;;3.95;0.85;;;;;;;25.32;42.35;102057.50;10206058;28;20473;-68
2022/06/16 12:12:50;;;;;;;3.00;0.80;;;;;;;25.94;38.67;102058.75;10214591;28;20056;-68
2022/06/16 12:18:11;;;;;;;4.47;1.15;;;;;;;25.13;39.20;102066.88;10198635;28;20107;-69
2022/06/16 12:23:24;;;;;;;2.80;0.77;;;;;;;24.05;41.77;102070.44;10201151;28;20083;-68
2022/06/16 12:28:31;;;;;;;1.90;0.60;;;;;;;23.25;43.47;102073.16;10198504;28;20176;-65
2022/06/16 12:33:58;;;;;;;2.97;0.85;;;;;;;23.78;43.11;102077.22;10196756;28;20133;-67
2022/06/16 12:39:00;;;;;;;2.90;0.65;;;;;;;23.87;42.45;102083.34;10212472;28;20080;-68
2022/06/16 12:44:11;;;;;;;4.18;1.13;;;;;;;23.09;45.19;102086.41;10201436;28;20257;-68
2022/06/16 12:49:30;;;;;;;2.28;0.85;;;;;;;23.17;44.08;102092.94;10197707;28;20485;-68
2022/06/16 12:54:35;;;;;;;2.75;0.50;;;;;;;23.24;44.50;102093.88;10204437;28;20065;-69
2022/06/16 12:59:42;;;;;;;2.83;0.73;;;;;;;23.37;43.71;102091.72;10201651;28;20042;-68
2022/06/16 13:04:40;;;;;;;5.68;1.33;;;;;;;23.21;44.99;102103.00;10211558;28;20072;-68
2022/06/16 13:09:36;;;;;;;1.85;0.40;;;;;;;23.01;46.23;102095.84;10217813;28;20042;-68
2022/06/16 13:14:39;;;;;;;1.73;0.40;;;;;;;23.42;44.54;102093.38;10212189;28;20050;-67
2022/06/16 13:19:50;;;;;;;6.10;0.82;;;;;;;23.08;44.75;102087.59;10211627;28;20124;-65
2022/06/16 13:24:49;;;;;;;4.28;1.05;;;;;;;22.64;46.56;102093.50;10210244;28;20477;-67
2022/06/16 13:29:49;;;;;;;4.30;0.77;;;;;;;22.65;47.03;102083.94;10204854;28;20049;-69
2022/06/16 13:34:53;;;;;;;1.60;0.63;;;;;;;22.65;47.26;102081.16;10206967;28;20987;-71
2022/06/16 13:39:55;;;;;;;2.92;0.60;;;;;;;22.23;47.57;102084.69;10198226;28;20042;-68
2022/06/16 13:45:15;;;;;;;5.82;0.73;;;;;;;22.30;45.99;102089.59;10212203;28;20104;-68
2022/06/16 13:50:49;;;;;;;4.65;0.82;;;;;;;22.53;47.04;102082.13;10202953;28;20132;-67
2022/06/16 13:55:55;;;;;;;4.15;0.90;;;;;;;22.60;47.42;102104.56;10220079;28;20049;-68
2022/06/16 14:01:14;;;;;;;3.95;0.80;;;;;;;22.63;48.33;102109.44;10225279;28;20429;-67
2022/06/16 14:06:13;;;;;;;3.95;0.80;;;;;;;22.78;48.84;102099.34;10218324;28;20045;-67
2022/06/16 14:11:33;;;;;;;2.45;0.80;;;;;;;23.07;48.25;102099.94;10229958;28;20076;-67
2022/06/16 14:16:49;;;;;;;6.78;1.50;;;;;;;22.54;51.81;102111.63;10226640;28;20045;-67
2022/06/16 14:22:18;;;;;;;7.40;0.93;;;;;;;22.89;53.42;102122.69;10216908;28;20057;-67
2022/06/16 14:27:22;;;;;;;5.15;0.90;;;;;;;24.00;52.38;102118.25;10216383;28;20103;-68
2022/06/16 14:32:36;;;;;;;6.88;1.15;;;;;;;22.80;54.31;102130.47;10222170;28;20519;-67
2022/06/16 14:38:00;;;;;;;4.90;1.60;;;;;;;22.14;59.21;102120.25;10222066;28;20045;-67
2022/06/16 14:43:00;;;;;;;8.70;2.58;;;;;;;21.87;61.73;102131.19;10216739;28;20161;-67
2022/06/16 14:48:05;;;;;;;4.00;0.70;;;;;;;22.06;61.91;102120.09;10216682;28;20077;-67
2022/06/16 14:53:08;;;;;;;5.70;1.67;;;;;;;22.61;56.95;102125.72;10223440;28;20092;-67
2022/06/16 14:58:05;;;;;;;5.43;1.23;;;;;;;22.56;55.84;102133.53;10217111;28;20107;-67
2022/06/16 15:03:08;;;;;;;6.03;1.10;;;;;;;22.57;56.21;102127.59;10224858;28;20505;-68
2022/06/16 15:08:07;;;;;;;3.85;1.23;;;;;;;21.97;56.78;102133.41;10218863;28;20732;-67
2022/06/16 15:13:07;;;;;;;4.95;1.05;;;;;;;22.21;58.72;102131.59;10224190;28;20041;-68
2022/06/16 15:18:11;;;;;;;4.07;1.08;;;;;;;22.54;56.99;102135.91;10218684;28;20100;-68
2022/06/16 15:23:09;;;;;;;3.90;0.90;;;;;;;22.68;56.23;102127.84;10215962;28;20053;-67
2022/06/16 15:28:40;;;;;;;7.40;1.38;;;;;;;22.76;55.63;102124.00;10212313;28;20594;-68
2022/06/16 15:39:12;;;;;;;5.28;1.92;;;;;;;22.49;56.02;102125.84;10218408;28;20041;-68
2022/06/16 15:44:35;;;;;;;7.53;1.40;;;;;;;22.70;54.95;102125.50;10224042;28;20119;-68
2022/06/16 15:49:40;;;;;;;5.75;1.83;;;;;;;22.94;54.75;102118.00;10204950;28;20044;-68
2022/06/16 15:54:39;;;;;;;4.15;1.30;;;;;;;23.16;53.95;102124.78;10202620;28;20046;-68
2022/06/16 15:59:56;;;;;;;5.13;1.23;;;;;;;23.94;52.02;102119.75;10208288;28;20038;-68
2022/06/16 16:05:00;;;;;;;3.65;0.88;;;;;;;24.76;48.55;102115.28;10202008;28;20595;-68
2022/06/16 16:09:57;;;;;;;5.72;1.17;;;;;;;25.62;45.53;102120.91;10165916;28;20683;-68
2022/06/16 16:15:14;;;;;;;7.40;1.95;;;;;;;25.64;42.87;102135.34;10186071;28;20127;-68
2022/06/16 16:20:20;;;;;;;9.10;2.28;;;;;;;25.63;41.95;102133.75;10195266;28;20054;-67
2022/06/16 16:25:17;;;;;;;6.75;1.08;;;;;;;26.57;41.52;102138.81;10186288;28;20137;-67
2022/06/16 16:30:17;;;;;;;4.43;1.63;;;;;;;26.13;41.46;102139.75;10202049;28;20046;-68
2022/06/16 16:35:14;;;;;;;3.72;1.33;;;;;;;25.99;40.55;102128.44;10198028;28;20132;-67
2022/06/16 16:43:00;;;;;;;8.18;1.75;;;;;;;25.59;40.63;102132.91;10201898;28;20572;-67
2022/06/16 16:45:50;;;;;;;4.70;1.75;;;;;;;25.35;42.00;102129.50;10199772;28;20140;-65
2022/06/16 16:50:49;;;;;;;6.38;2.05;;;;;;;25.57;40.39;102140.88;10200524;28;20489;-64
2022/06/16 16:55:46;;;;;;;4.38;1.55;;;;;;;25.76;39.37;102142.63;10205030;28;20517;-67
2022/06/16 17:00:43;;;;;;;5.07;1.75;;;;;;;26.07;39.48;102124.47;10210372;28;20202;-66
2022/06/16 17:05:40;;;;;;;6.38;3.28;;;;;;;26.12;37.25;102140.94;10201999;28;20053;-67
2022/06/16 17:10:37;;;;;;;3.50;1.27;;;;;;;25.78;38.46;102143.88;10200983;28;20059;-66
2022/06/16 17:15:34;;;;;;;5.50;1.88;;;;;;;25.44;37.51;102143.19;10199623;28;20049;-67
2022/06/16 17:20:31;;;;;;;5.57;2.00;;;;;;;24.97;37.94;102142.69;10216148;28;20623;-66
2022/06/16 17:25:27;;;;;;;4.00;1.27;;;;;;;24.52;38.47;102154.94;10211303;28;20049;-67
2022/06/16 17:30:27;;;;;;;5.80;1.45;;;;;;;24.04;40.49;102149.81;10226115;28;20175;-67
2022/06/16 17:35:34;;;;;;;5.10;1.20;;;;;;;24.25;39.73;102152.16;10210946;28;20054;-67
2022/06/16 17:40:31;;;;;;;7.50;1.80;;;;;;;24.37;39.12;102148.31;10216049;28;20068;-66
2022/06/16 17:45:29;;;;;;;5.38;1.48;;;;;;;25.24;38.90;102137.00;10211914;28;20100;-67
2022/06/16 17:50:26;;;;;;;6.45;2.13;;;;;;;25.45;37.44;102149.59;10217766;28;20544;-67
2022/06/16 18:00:40;;;;;;;7.53;2.40;;;;;;;24.38;39.90;102144.31;10214682;28;20054;-65
2022/06/16 18:05:37;;;;;;;8.63;1.83;;;;;;;23.38;42.04;102131.59;10201247;28;20686;-68
2022/06/16 18:10:43;;;;;;;5.13;1.60;;;;;;;22.53;44.42;102137.06;10197130;28;20045;-67
2022/06/16 18:15:39;;;;;;;3.38;1.17;;;;;;;22.19;45.90;102140.31;10189267;28;20053;-67
2022/06/16 18:20:37;;;;;;;5.57;2.08;;;;;;;21.73;46.55;102144.78;10197931;28;20058;-67
2022/06/16 18:25:39;;;;;;;5.57;1.75;;;;;;;21.26;47.93;102142.72;10190240;28;20568;-67
2022/06/16 18:30:35;;;;;;;5.78;1.75;;;;;;;20.94;47.11;102143.47;10191487;28;20524;-68
2022/06/16 18:35:32;;;;;;;6.40;1.90;;;;;;;20.83;48.97;102130.44;10186760;28;20132;-67
2022/06/16 18:40:35;;;;;;;6.20;1.95;;;;;;;20.60;51.48;102133.75;10192920;28;20137;-66
2022/06/16 18:45:32;;;;;;;5.45;2.22;;;;;;;20.31;54.51;102132.88;10208282;28;20153;-67
2022/06/16 18:50:29;;;;;;;5.60;1.95;;;;;;;20.21;57.70;102133.34;10205803;28;20053;-67
2022/06/16 18:55:25;;;;;;;6.07;2.20;;;;;;;20.20;59.19;102130.94;10212454;28;20041;-67
2022/06/16 19:00:22;;;;;;;6.80;2.78;;;;;;;19.80;63.98;102129.69;10208222;28;20180;-67
2022/06/16 19:05:22;;;;;;;5.15;1.90;;;;;;;19.91;65.63;102136.41;10203991;28;20127;-67
2022/06/16 19:10:22;;;;;;;4.55;1.85;;;;;;;19.87;67.21;102151.31;10223890;28;20077;-67
2022/06/16 19:15:22;;;;;;;8.10;2.20;;;;;;;19.76;68.50;102139.88;10216428;28;20054;-67
2022/06/16 19:20:27;;;;;;;7.60;2.40;;;;;;;19.63;70.54;102132.66;10215578;28;20041;-67
2022/06/16 19:25:25;;;;;;;5.47;2.70;;;;;;;19.44;73.68;102128.47;10213550;28;20091;-67
2022/06/16 19:30:28;;;;;;;8.68;2.88;;;;;;;19.49;75.66;102144.88;10220696;28;20057;-67
2022/06/16 19:35:25;;;;;;;6.25;2.70;;;;;;;19.45;77.24;102157.84;10208387;28;20473;-67
2022/06/16 19:40:25;;;;;;;5.15;2.50;;;;;;;19.33;79.59;102174.44;10222709;28;20084;-67
2022/06/16 19:50:48;;;;;;;6.93;2.75;;;;;;;19.13;83.60;102207.41;10222322;28;20144;-67
2022/06/16 19:55:46;;;;;;;6.20;2.55;;;;;;;19.08;84.12;102215.94;10187213;28;20045;-66
2022/06/16 20:00:49;;;;;;;6.93;2.38;;;;;;;18.84;86.04;102221.34;10198075;28;20454;-65
2022/06/16 20:05:47;;;;;;;7.90;3.80;;;;;;;18.78;87.00;102223.53;10203774;28;20086;-63
2022/06/16 20:10:46;;;;;;;6.18;1.85;;;;;;;18.76;88.06;102241.59;10221507;28;20525;-63
2022/06/16 20:15:45;;;;;;;7.05;2.70;;;;;;;18.60;90.42;102256.03;10212373;28;20061;-64
2022/06/16 20:20:49;;;;;;;5.70;2.13;;;;;;;18.41;91.96;102263.97;10201052;28;20061;-64
2022/06/16 20:25:48;;;;;;;9.48;2.42;;;;;;;18.46;92.84;102272.09;10195382;28;20698;-64
2022/06/16 20:30:44;;;;;;;7.90;2.80;;;;;;;18.50;93.84;102282.16;10198581;28;20567;-64
2022/06/16 20:35:46;;;;;;;6.93;2.20;;;;;;;18.36;94.51;102283.56;10203437;28;20052;-65
2022/06/16 20:40:51;;;;;;;8.80;3.05;;;;;;;18.24;95.87;102293.38;10200680;28;20140;-64
2022/06/16 20:45:49;;;;;;;5.38;2.10;;;;;;;18.21;96.81;102276.59;10208848;28;20099;-64
2022/06/16 20:50:53;;;;;;;5.78;2.17;;;;;;;18.14;97.41;102271.56;10223494;28;20061;-64
2022/06/16 20:55:50;;;;;;;6.05;1.90;;;;;;;18.18;98.60;102255.94;10222806;28;20115;-64
2022/06/16 21:06:04;;;;;;;5.25;2.28;;;;;;;18.11;99.43;102247.34;10220836;28;20575;-65
2022/06/16 21:12:19;;;;;;;5.25;2.30;;;;;;;18.02;99.75;102263.16;10223692;28;20076;-63
2022/06/16 21:16:17;;;;;;;9.20;2.40;;;;;;;17.81;100.00;102258.34;10216814;28;20184;-63
2022/06/16 21:21:15;;;;;;;6.65;2.15;;;;;;;17.65;100.00;102265.50;10222622;28;20056;-64
2022/06/16 21:26:13;;;;;;;8.55;2.53;;;;;;;17.61;100.00;102264.53;10219465;28;20140;-64
2022/06/16 21:31:15;;;;;;;9.27;3.17;;;;;;;17.60;100.00;102240.81;10229520;28;20084;-64
2022/06/16 21:36:15;;;;;;;7.95;2.63;;;;;;;17.60;100.00;102247.13;10227847;28;20045;-65
2022/06/16 21:41:15;;;;;;;10.32;3.38;;;;;;;17.63;100.00;102259.50;10231130;28;20095;-64
2022/06/16 21:46:17;;;;;;;9.15;3.05;;;;;;;17.50;100.00;102258.56;10222822;28;20446;-64
2022/06/16 21:51:14;;;;;;;6.80;2.75;;;;;;;17.46;100.00;102258.38;10227427;28;20111;-64
2022/06/16 21:56:14;;;;;;;7.97;2.97;;;;;;;17.32;100.00;102274.34;10226134;28;20056;-64
2022/06/16 22:01:14;;;;;;;8.68;2.90;;;;;;;17.28;100.00;102256.78;10225415;28;20128;-63
2022/06/16 22:06:12;;;;;;;7.53;2.47;;;;;;;17.22;100.00;102252.56;10224416;28;20057;-63
2022/06/16 22:16:33;;;;;;;5.75;2.58;;;;;;;17.17;100.00;102255.47;10225429;28;20121;-64
2022/06/16 22:21:30;;;;;;;4.95;2.40;;;;;;;17.08;100.00;102254.66;10227424;28;20493;-64
2022/06/16 22:26:30;;;;;;;8.57;2.70;;;;;;;17.02;100.00;102260.34;10222430;28;20591;-64
2022/06/16 22:31:35;;;;;;;8.52;3.17;;;;;;;16.96;100.00;102267.16;10222604;28;20041;-64
2022/06/16 22:36:33;;;;;;;6.65;2.47;;;;;;;16.87;100.00;102280.16;10220853;28;20509;-64
2022/06/16 22:41:37;;;;;;;5.75;2.45;;;;;;;16.84;100.00;102280.81;10223848;28;20462;-64
2022/06/16 22:46:43;;;;;;;9.45;3.45;;;;;;;16.79;100.00;102269.94;10225387;28;20037;-64
2022/06/16 22:51:40;;;;;;;6.05;2.53;;;;;;;16.75;100.00;102277.19;10220612;28;20073;-64
2022/06/16 22:56:36;;;;;;;6.10;2.90;;;;;;;16.66;100.00;102290.97;10223395;28;20133;-64
2022/06/16 23:01:34;;;;;;;4.47;2.15;;;;;;;16.61;100.00;102288.38;10227128;28;20049;-64
2022/06/16 23:06:33;;;;;;;6.18;2.78;;;;;;;16.54;100.00;102275.03;10223401;28;20148;-63
2022/06/16 23:11:30;;;;;;;5.22;2.40;;;;;;;16.49;100.00;102261.38;10224774;28;20041;-64
2022/06/16 23:16:31;;;;;;;4.60;2.08;;;;;;;16.35;100.00;102247.69;10227969;28;20077;-64
2022/06/16 23:21:36;;;;;;;6.20;2.50;;;;;;;16.28;100.00;102265.84;10222204;28;20049;-64
2022/06/16 23:26:35;;;;;;;6.80;2.70;;;;;;;16.15;100.00;102262.91;10218506;28;20510;-63
2022/06/16 23:31:39;;;;;;;6.35;2.60;;;;;;;16.05;100.00;102263.16;10221956;28;20069;-64
2022/06/16 23:36:36;;;;;;;7.65;3.15;;;;;;;15.98;100.00;102254.53;10220926;28;20046;-64
2022/06/16 23:41:32;;;;;;;9.45;3.33;;;;;;;15.90;100.00;102252.56;10227391;28;20034;-64
2022/06/16 23:46:29;;;;;;;6.72;3.38;;;;;;;15.78;100.00;102256.72;10223372;28;20041;-64
2022/06/16 23:51:28;;;;;;;8.30;2.95;;;;;;;15.72;100.00;102263.47;10225368;28;20055;-62
2022/06/16 23:56:26;;;;;;;7.05;3.22;;;;;;;15.61;100.00;102262.06;10221598;28;20076;-64
